Time;durP1;ratioP1;P1;durP2;ratioP2;P2;SDS_P1;SDS_P2;PMS_P1;PMS_P2;Temp;Humidity;BMP_temperature;BMP_pressure;BME280_temperature;BME280_humidity;BME280_pressure;Samples;Min_cycle;Max_cycle;Signal;HPM_P1;HPM_P2
2023/02/24 00:01:23;;;;;;;31.05;16.73;;;;;;;;;;6218586;23;20027;-94
2023/02/24 00:03:59;;;;;;;28.63;16.00;;;;;;;;;;6218760;23;20020;-94
2023/02/24 00:06:35;;;;;;;31.48;16.42;;;;;;;;;;6218908;23;20012;-94
2023/02/24 00:09:16;;;;;;;30.90;15.57;;;;;;;;;;6241122;23;20007;-94
2023/02/24 00:11:45;;;;;;;36.45;17.30;;;;;;;;;;6218029;23;20000;-94
2023/02/24 00:14:14;;;;;;;35.17;16.85;;;;;;;;;;6218677;23;20448;-94
2023/02/24 00:16:43;;;;;;;33.05;16.60;;;;;;;;;;6218192;23;20009;-94
2023/02/24 00:19:15;;;;;;;44.38;18.08;;;;;;;;;;6218883;23;20073;-95
2023/02/24 00:21:41;;;;;;;37.33;19.23;;;;;;;;;;6218013;23;20086;-93
2023/02/24 00:24:09;;;;;;;29.95;16.60;;;;;;;;;;6218536;23;20011;-95
2023/02/24 00:26:38;;;;;;;37.22;17.65;;;;;;;;;;6245412;23;20437;-95
2023/02/24 00:29:06;;;;;;;39.22;19.23;;;;;;;;;;6218391;23;20406;-94
2023/02/24 00:31:38;;;;;;;41.08;18.55;;;;;;;;;;6218405;23;20079;-95
2023/02/24 00:34:06;;;;;;;38.90;18.02;;;;;;;;;;6218025;23;20429;-94
2023/02/24 00:36:32;;;;;;;30.73;17.48;;;;;;;;;;6218365;23;20008;-93
2023/02/24 00:39:01;;;;;;;34.45;18.17;;;;;;;;;;6218567;23;20012;-93
2023/02/24 00:41:30;;;;;;;32.22;17.00;;;;;;;;;;6218043;23;20019;-93
2023/02/24 00:44:06;;;;;;;40.80;18.77;;;;;;;;;;6218342;23;20007;-94
2023/02/24 00:46:34;;;;;;;31.23;17.52;;;;;;;;;;6218292;23;20036;-93
2023/02/24 00:49:09;;;;;;;35.80;18.67;;;;;;;;;;6218196;23;20024;-94
2023/02/24 00:51:38;;;;;;;35.42;18.10;;;;;;;;;;6217447;23;20086;-94
2023/02/24 00:54:06;;;;;;;38.92;19.65;;;;;;;;;;6217206;23;20159;-94
2023/02/24 00:56:32;;;;;;;36.95;19.10;;;;;;;;;;6217264;23;20083;-93
2023/02/24 00:59:01;;;;;;;33.85;19.20;;;;;;;;;;6217696;23;20015;-93
2023/02/24 01:01:30;;;;;;;32.67;18.40;;;;;;;;;;6217800;23;20007;-95
2023/02/24 01:03:58;;;;;;;33.85;19.20;;;;;;;;;;6218145;23;20434;-94
2023/02/24 01:06:27;;;;;;;38.45;19.17;;;;;;;;;;6218023;23;20318;-95
2023/02/24 01:08:56;;;;;;;40.47;18.73;;;;;;;;;;6217590;23;20066;-95
2023/02/24 01:14:16;;;;;;;33.88;18.00;;;;;;;;;;6244033;23;20095;-95
2023/02/24 01:16:49;;;;;;;43.40;19.70;;;;;;;;;;6223891;22;20006;-95
2023/02/24 01:19:16;;;;;;;35.90;19.02;;;;;;;;;;6246320;22;20000;-94
2023/02/24 01:21:42;;;;;;;43.75;19.38;;;;;;;;;;6225961;23;20250;-94
2023/02/24 01:24:10;;;;;;;32.13;17.15;;;;;;;;;;6230838;23;20296;-94
2023/02/24 01:32:32;;;;;;;41.95;21.30;;;;;;;;;;6188319;23;20081;-94
2023/02/24 01:34:59;;;;;;;44.85;21.65;;;;;;;;;;6217566;23;20008;-94
2023/02/24 01:37:26;;;;;;;42.42;22.55;;;;;;;;;;6217582;23;20004;-94
2023/02/24 01:39:54;;;;;;;45.92;22.02;;;;;;;;;;6217550;23;20044;-95
2023/02/24 01:42:21;;;;;;;38.63;20.73;;;;;;;;;;6217922;23;20004;-92
2023/02/24 01:44:50;;;;;;;43.95;21.83;;;;;;;;;;6217372;23;20012;-94
2023/02/24 01:47:21;;;;;;;43.75;21.73;;;;;;;;;;6218416;23;20444;-94
2023/02/24 01:49:52;;;;;;;38.92;22.10;;;;;;;;;;6221829;23;20012;-94
2023/02/24 01:52:23;;;;;;;39.40;20.95;;;;;;;;;;6244204;22;20022;-93
2023/02/24 01:54:53;;;;;;;35.25;20.55;;;;;;;;;;6219225;23;20015;-95
2023/02/24 01:57:25;;;;;;;33.80;19.33;;;;;;;;;;6217777;23;20422;-96
2023/02/24 01:59:56;;;;;;;37.30;19.25;;;;;;;;;;6217573;23;20103;-94
2023/02/24 02:02:24;;;;;;;33.95;18.67;;;;;;;;;;6217842;23;20062;-96
2023/02/24 02:04:52;;;;;;;42.47;21.10;;;;;;;;;;6217671;23;20088;-95
2023/02/24 02:07:21;;;;;;;36.58;19.08;;;;;;;;;;6216954;23;20108;-95
2023/02/24 02:09:49;;;;;;;38.17;19.40;;;;;;;;;;6217666;23;20007;-96
2023/02/24 02:12:16;;;;;;;39.33;21.08;;;;;;;;;;6217460;23;20004;-96
2023/02/24 02:14:46;;;;;;;35.65;20.20;;;;;;;;;;6217447;23;20008;-96
2023/02/24 02:17:32;;;;;;;36.97;20.60;;;;;;;;;;6217731;23;20004;-96
2023/02/24 02:20:24;;;;;;;42.10;20.73;;;;;;;;;;6217273;23;20029;-94
2023/02/24 02:23:13;;;;;;;40.85;22.38;;;;;;;;;;6217166;23;20011;-96
2023/02/24 02:25:40;;;;;;;42.50;21.67;;;;;;;;;;6217378;23;20003;-95
2023/02/24 02:28:24;;;;;;;43.05;23.17;;;;;;;;;;6217823;23;20295;-96
2023/02/24 02:31:12;;;;;;;35.85;20.50;;;;;;;;;;6217798;23;20008;-96
2023/02/24 02:33:53;;;;;;;43.85;20.85;;;;;;;;;;6190513;23;20025;-93
2023/02/24 02:36:32;;;;;;;41.90;20.48;;;;;;;;;;6182402;23;20013;-95
2023/02/24 02:39:11;;;;;;;43.42;21.15;;;;;;;;;;6182280;23;20024;-95
2023/02/24 02:41:45;;;;;;;37.53;20.00;;;;;;;;;;6182162;23;20016;-95
2023/02/24 02:44:12;;;;;;;45.67;22.38;;;;;;;;;;6182859;23;20335;-96
2023/02/24 02:46:44;;;;;;;36.60;19.73;;;;;;;;;;6182425;23;20012;-96
2023/02/24 02:49:32;;;;;;;42.95;21.73;;;;;;;;;;6182838;23;20506;-94
2023/02/24 02:52:04;;;;;;;40.50;22.02;;;;;;;;;;6182238;23;20005;-94
2023/02/24 02:54:44;;;;;;;42.20;21.80;;;;;;;;;;6182237;23;20009;-94
2023/02/24 02:57:14;;;;;;;40.60;20.60;;;;;;;;;;6182500;23;20001;-95
2023/02/24 02:59:44;;;;;;;35.35;19.70;;;;;;;;;;6182019;23;20013;-94
2023/02/24 03:02:13;;;;;;;34.97;19.23;;;;;;;;;;6182156;23;20005;-94
2023/02/24 03:04:50;;;;;;;40.15;21.08;;;;;;;;;;6183064;23;20005;-94
2023/02/24 03:07:19;;;;;;;39.47;20.13;;;;;;;;;;6183704;23;20439;-95
2023/02/24 03:09:49;;;;;;;37.35;19.88;;;;;;;;;;6184223;23;20037;-94
2023/02/24 03:12:17;;;;;;;46.15;21.52;;;;;;;;;;6184364;23;20577;-93
2023/02/24 03:14:49;;;;;;;37.92;20.58;;;;;;;;;;6184054;23;20026;-94
2023/02/24 03:17:20;;;;;;;40.92;21.60;;;;;;;;;;6183815;23;20001;-96
2023/02/24 03:19:53;;;;;;;36.75;20.20;;;;;;;;;;6183733;23;20024;-94
2023/02/24 03:22:27;;;;;;;40.08;19.23;;;;;;;;;;6184021;23;20008;-94
2023/02/24 03:24:54;;;;;;;33.25;18.40;;;;;;;;;;6183855;23;20028;-93
2023/02/24 03:27:28;;;;;;;34.10;17.55;;;;;;;;;;6184131;23;20020;-93
2023/02/24 03:30:05;;;;;;;39.90;19.60;;;;;;;;;;6184098;23;20052;-96
2023/02/24 03:32:42;;;;;;;46.80;20.20;;;;;;;;;;6184444;23;20017;-95
2023/02/24 03:35:14;;;;;;;38.95;19.38;;;;;;;;;;6184905;23;20005;-96
2023/02/24 03:37:41;;;;;;;42.45;21.55;;;;;;;;;;6184245;23;20041;-95
2023/02/24 03:40:13;;;;;;;47.75;21.58;;;;;;;;;;6184932;23;20024;-96
2023/02/24 03:42:42;;;;;;;43.17;22.17;;;;;;;;;;6184282;23;20005;-96
2023/02/24 03:45:09;;;;;;;46.40;23.42;;;;;;;;;;6184123;23;20020;-96
2023/02/24 03:47:35;;;;;;;46.83;24.15;;;;;;;;;;6183906;23;20039;-96
2023/02/24 03:50:10;;;;;;;46.05;22.80;;;;;;;;;;6184232;23;20005;-96
2023/02/24 03:52:46;;;;;;;46.97;23.17;;;;;;;;;;6183705;23;20450;-96
2023/02/24 03:55:21;;;;;;;46.13;23.65;;;;;;;;;;6184261;23;20075;-96
2023/02/24 03:57:54;;;;;;;49.35;25.65;;;;;;;;;;6183776;23;20005;-95
2023/02/24 04:00:33;;;;;;;44.72;23.38;;;;;;;;;;6184080;23;20017;-96
2023/02/24 04:06:22;;;;;;;39.85;20.92;;;;;;;;;;6199910;23;20019;-96
2023/02/24 04:11:31;;;;;;;42.05;22.08;;;;;;;;;;6157133;23;20858;-93
2023/02/24 04:14:05;;;;;;;47.35;22.38;;;;;;;;;;6193603;23;20098;-93
2023/02/24 04:16:38;;;;;;;44.72;22.67;;;;;;;;;;6187905;23;20009;-96
2023/02/24 04:19:04;;;;;;;;;;;;;;;;;;6188413;23;20067;-94
2023/02/24 04:21:33;;;;;;;41.40;22.30;;;;;;;;;;6215403;23;20423;-94
2023/02/24 04:24:05;;;;;;;44.85;23.52;;;;;;;;;;6188108;23;20009;-94
2023/02/24 04:26:34;;;;;;;43.08;22.13;;;;;;;;;;6188201;23;20430;-94
2023/02/24 04:29:01;;;;;;;35.28;19.10;;;;;;;;;;6188306;23;20009;-94
2023/02/24 04:31:29;;;;;;;45.88;21.88;;;;;;;;;;6188269;23;20445;-94
2023/02/24 04:33:59;;;;;;;40.45;22.77;;;;;;;;;;6188616;23;20005;-91
2023/02/24 04:36:26;;;;;;;47.00;23.95;;;;;;;;;;6188427;23;20005;-95
2023/02/24 04:38:53;;;;;;;48.13;24.40;;;;;;;;;;6188219;23;20346;-94
2023/02/24 04:41:20;;;;;;;45.22;24.65;;;;;;;;;;6188129;23;20095;-94
2023/02/24 04:43:49;;;;;;;46.55;24.33;;;;;;;;;;6188123;23;20005;-94
2023/02/24 04:46:17;;;;;;;42.45;21.20;;;;;;;;;;6187973;23;20036;-94
2023/02/24 04:48:44;;;;;;;42.55;24.83;;;;;;;;;;6188065;23;20005;-94
2023/02/24 04:51:12;;;;;;;46.60;25.08;;;;;;;;;;6188199;23;20005;-93
2023/02/24 04:53:38;;;;;;;46.92;25.15;;;;;;;;;;6188250;23;20004;-92
2023/02/24 04:56:07;;;;;;;42.90;23.42;;;;;;;;;;6187997;23;20001;-95
2023/02/24 04:58:38;;;;;;;47.47;25.10;;;;;;;;;;6187638;23;20005;-93
2023/02/24 05:01:11;;;;;;;50.53;23.75;;;;;;;;;;6187866;23;20009;-95
2023/02/24 05:03:41;;;;;;;37.50;21.90;;;;;;;;;;6187960;23;20087;-93
2023/02/24 05:06:14;;;;;;;47.50;24.25;;;;;;;;;;6188119;23;20019;-92
2023/02/24 05:08:42;;;;;;;45.22;23.40;;;;;;;;;;6180322;23;20074;-94
2023/02/24 05:11:17;;;;;;;46.88;24.23;;;;;;;;;;6187827;23;20005;-93
2023/02/24 05:13:46;;;;;;;48.60;25.20;;;;;;;;;;6183076;23;20012;-94
2023/02/24 05:16:15;;;;;;;51.20;25.05;;;;;;;;;;6182881;23;20009;-93
2023/02/24 05:18:43;;;;;;;45.60;24.02;;;;;;;;;;6182815;23;20395;-93
2023/02/24 05:23:58;;;;;;;47.50;24.25;;;;;;;;;;6184062;23;20036;-93
2023/02/24 05:26:26;;;;;;;46.78;24.10;;;;;;;;;;6182387;23;20448;-94
2023/02/24 05:28:55;;;;;;;49.63;24.60;;;;;;;;;;6182860;23;20005;-95
2023/02/24 05:31:24;;;;;;;43.60;22.73;;;;;;;;;;6182869;23;20009;-93
2023/02/24 05:33:54;;;;;;;43.08;23.00;;;;;;;;;;6182909;23;20001;-95
2023/02/24 05:36:22;;;;;;;46.60;23.38;;;;;;;;;;6182634;23;20059;-94
2023/02/24 05:39:06;;;;;;;42.60;23.95;;;;;;;;;;6182379;23;20009;-94
2023/02/24 05:41:40;;;;;;;48.88;22.73;;;;;;;;;;6182722;23;20016;-94
2023/02/24 05:44:12;;;;;;;41.70;22.05;;;;;;;;;;6182616;23;20005;-93
2023/02/24 05:46:40;;;;;;;52.22;25.85;;;;;;;;;;6182563;23;20004;-92
2023/02/24 05:49:22;;;;;;;48.00;24.25;;;;;;;;;;6182944;23;20005;-93
2023/02/24 05:51:56;;;;;;;47.42;24.73;;;;;;;;;;6144889;23;20512;-93
2023/02/24 05:54:27;;;;;;;50.17;25.98;;;;;;;;;;6182381;23;20079;-93
2023/02/24 05:56:55;;;;;;;54.72;25.58;;;;;;;;;;6182644;23;20443;-93
2023/02/24 05:59:22;;;;;;;55.45;26.65;;;;;;;;;;6182293;23;20031;-94
2023/02/24 06:01:52;;;;;;;57.70;25.85;;;;;;;;;;6183043;23;20001;-91
2023/02/24 06:04:26;;;;;;;44.08;22.98;;;;;;;;;;6182671;23;20005;-93
2023/02/24 06:06:53;;;;;;;57.95;27.00;;;;;;;;;;6182938;23;20029;-93
2023/02/24 06:09:22;;;;;;;59.15;26.67;;;;;;;;;;6182724;23;20005;-92
2023/02/24 06:11:49;;;;;;;45.38;24.13;;;;;;;;;;6159491;23;20020;-90
2023/02/24 06:14:15;;;;;;;46.17;24.13;;;;;;;;;;6214115;23;20016;-91
2023/02/24 06:16:45;;;;;;;51.55;28.23;;;;;;;;;;6231700;23;20457;-92
2023/02/24 06:19:12;;;;;;;60.90;28.90;;;;;;;;;;6215362;23;20013;-95
2023/02/24 06:21:44;;;;;;;42.63;23.02;;;;;;;;;;6215646;23;20009;-96
2023/02/24 06:24:17;;;;;;;50.38;27.00;;;;;;;;;;6222251;23;20005;-95
2023/02/24 06:26:44;;;;;;;45.70;24.38;;;;;;;;;;6214924;23;20004;-93
2023/02/24 06:30:09;;;;;;;45.10;26.35;;;;;;;;;;6223914;23;20062;-96
2023/02/24 06:32:50;;;;;;;53.40;28.25;;;;;;;;;;6217616;23;20021;-94
2023/02/24 06:35:41;;;;;;;40.25;23.75;;;;;;;;;;6160145;23;20305;-96
2023/02/24 06:38:07;;;;;;;53.38;28.30;;;;;;;;;;6140280;23;20068;-94
2023/02/24 06:40:33;;;;;;;39.78;22.88;;;;;;;;;;6160632;23;20066;-92
2023/02/24 06:43:24;;;;;;;38.28;23.95;;;;;;;;;;6159491;23;20004;-92
2023/02/24 06:45:58;;;;;;;54.75;29.35;;;;;;;;;;6159634;23;20427;-91
2023/02/24 06:51:51;;;;;;;55.42;28.98;;;;;;;;;;6187314;23;20012;-93
2023/02/24 06:54:18;;;;;;;52.33;28.48;;;;;;;;;;6160547;23;20068;-92
2023/02/24 06:56:50;;;;;;;48.38;28.23;;;;;;;;;;6163916;23;20005;-95
2023/02/24 06:59:20;;;;;;;46.58;27.65;;;;;;;;;;6182702;23;20048;-90
2023/02/24 07:01:49;;;;;;;45.25;27.15;;;;;;;;;;6172815;23;20012;-93
2023/02/24 07:04:16;;;;;;;35.85;21.48;;;;;;;;;;6163951;23;20084;-92
2023/02/24 07:06:51;;;;;;;41.60;23.50;;;;;;;;;;6161621;23;20005;-92
2023/02/24 07:09:19;;;;;;;50.92;27.13;;;;;;;;;;6158998;23;20058;-92
2023/02/24 07:11:48;;;;;;;47.38;25.70;;;;;;;;;;6159015;23;20008;-92
2023/02/24 07:14:14;;;;;;;49.05;27.23;;;;;;;;;;6159122;23;20104;-91
2023/02/24 07:16:44;;;;;;;50.05;25.63;;;;;;;;;;6159462;23;20032;-92
2023/02/24 07:19:12;;;;;;;40.83;24.80;;;;;;;;;;6158785;23;20009;-92
2023/02/24 07:21:39;;;;;;;39.80;22.33;;;;;;;;;;6159179;23;20009;-92
2023/02/24 07:24:07;;;;;;;55.15;28.92;;;;;;;;;;6159293;23;20001;-94
2023/02/24 07:26:33;;;;;;;43.92;25.58;;;;;;;;;;6159011;23;20498;-92
2023/02/24 07:29:03;;;;;;;41.10;23.02;;;;;;;;;;6158886;23;20427;-93
2023/02/24 07:31:31;;;;;;;36.13;20.98;;;;;;;;;;6158772;23;20013;-94
2023/02/24 07:34:00;;;;;;;36.05;21.35;;;;;;;;;;6175000;23;20092;-93
2023/02/24 07:36:28;;;;;;;34.25;20.55;;;;;;;;;;6184009;23;20008;-94
2023/02/24 07:38:57;;;;;;;35.65;22.95;;;;;;;;;;6188675;23;20009;-92
2023/02/24 07:41:25;;;;;;;44.05;26.48;;;;;;;;;;6188824;23;20159;-92
2023/02/24 07:43:51;;;;;;;47.83;29.75;;;;;;;;;;6188695;23;20012;-91
2023/02/24 07:46:23;;;;;;;37.05;24.45;;;;;;;;;;6188288;23;20047;-94
2023/02/24 07:48:49;;;;;;;38.47;23.42;;;;;;;;;;6189258;23;20039;-92
2023/02/24 07:51:18;;;;;;;39.80;23.88;;;;;;;;;;6190591;23;20083;-94
2023/02/24 07:53:44;;;;;;;35.42;23.48;;;;;;;;;;6191319;23;20005;-91
2023/02/24 07:56:13;;;;;;;34.30;24.23;;;;;;;;;;6191277;23;20036;-92
2023/02/24 07:58:43;;;;;;;34.90;23.27;;;;;;;;;;6190581;23;20066;-89
2023/02/24 08:01:21;;;;;;;34.13;23.58;;;;;;;;;;6190582;23;20005;-90
2023/02/24 08:03:48;;;;;;;31.30;23.15;;;;;;;;;;6191378;23;20000;-89
2023/02/24 08:06:25;;;;;;;31.77;21.67;;;;;;;;;;6217625;23;20012;-90
2023/02/24 08:08:57;;;;;;;33.30;22.50;;;;;;;;;;6191012;23;20039;-89
2023/02/24 08:11:26;;;;;;;29.13;21.95;;;;;;;;;;6191000;23;20429;-91
2023/02/24 14:34:35;;;;;;;51.80;38.85;;;;;;;;;;6181508;22;20084;-93
2023/02/24 14:37:06;;;;;;;42.42;35.80;;;;;;;;;;6194262;23;20009;-96
2023/02/24 14:39:36;;;;;;;41.55;33.63;;;;;;;;;;6190645;23;20070;-96
2023/02/24 14:42:08;;;;;;;40.50;32.50;;;;;;;;;;6216816;23;20004;-96
2023/02/24 14:44:40;;;;;;;41.80;31.60;;;;;;;;;;6218568;23;20410;-96
2023/02/24 14:47:09;;;;;;;39.13;31.02;;;;;;;;;;6193870;23;20001;-96
2023/02/24 14:49:40;;;;;;;41.72;31.35;;;;;;;;;;6191627;23;20016;-96
2023/02/24 14:52:18;;;;;;;40.65;31.80;;;;;;;;;;6200997;23;20009;-96
2023/02/24 15:01:24;;;;;;;38.38;29.67;;;;;;;;;;6192294;23;20514;-96
2023/02/24 15:03:53;;;;;;;39.13;29.23;;;;;;;;;;6120866;23;20020;-96
2023/02/24 15:06:23;;;;;;;36.05;30.20;;;;;;;;;;6164710;23;20515;-96
2023/02/24 15:09:11;;;;;;;35.28;27.55;;;;;;;;;;6170226;23;20087;-94
2023/02/24 15:11:39;;;;;;;35.28;28.80;;;;;;;;;;6139392;23;20088;-92
2023/02/24 15:14:14;;;;;;;37.40;29.80;;;;;;;;;;6162927;23;20009;-93
2023/02/24 15:16:46;;;;;;;37.55;28.23;;;;;;;;;;6189394;23;20016;-94
2023/02/24 15:22:29;;;;;;;39.97;29.88;;;;;;;;;;6192098;23;20043;-90
2023/02/24 15:25:07;;;;;;;40.67;28.60;;;;;;;;;;6161695;23;20001;-90
2023/02/24 15:27:33;;;;;;;40.00;29.15;;;;;;;;;;6161729;23;20012;-91
2023/02/24 15:30:19;;;;;;;38.15;28.50;;;;;;;;;;6161734;23;20458;-92
2023/02/24 15:32:45;;;;;;;42.95;29.88;;;;;;;;;;6161465;23;20058;-92
2023/02/24 15:35:23;;;;;;;40.65;29.02;;;;;;;;;;6161508;23;20016;-95
2023/02/24 15:37:51;;;;;;;38.67;29.23;;;;;;;;;;6161800;23;20008;-91
2023/02/24 15:40:20;;;;;;;37.83;28.23;;;;;;;;;;6161484;23;20346;-90
2023/02/24 15:42:55;;;;;;;35.30;27.75;;;;;;;;;;6161796;23;20040;-96
2023/02/24 15:45:22;;;;;;;40.13;30.05;;;;;;;;;;6161710;23;20343;-93
2023/02/24 15:47:54;;;;;;;44.65;29.90;;;;;;;;;;6161510;23;20001;-93
2023/02/24 15:50:21;;;;;;;39.53;29.75;;;;;;;;;;6162139;23;20009;-92
2023/02/24 15:52:47;;;;;;;40.97;30.35;;;;;;;;;;6161829;23;20088;-90
2023/02/24 15:55:17;;;;;;;40.10;29.73;;;;;;;;;;6182510;23;20020;-91
2023/02/24 15:57:44;;;;;;;41.30;29.88;;;;;;;;;;6196305;23;20001;-91
2023/02/24 16:00:18;;;;;;;39.40;30.10;;;;;;;;;;6198472;23;20020;-93
2023/02/24 16:02:44;;;;;;;42.08;31.58;;;;;;;;;;6191677;23;20015;-95
2023/02/24 16:05:15;;;;;;;44.75;30.42;;;;;;;;;;6187936;23;20005;-92
2023/02/24 16:07:43;;;;;;;47.33;31.48;;;;;;;;;;6191185;23;20005;-93
2023/02/24 16:10:23;;;;;;;43.50;32.22;;;;;;;;;;6197436;23;20011;-96
2023/02/24 16:12:51;;;;;;;63.83;31.75;;;;;;;;;;6193098;23;20039;-93
2023/02/24 16:15:22;;;;;;;54.08;32.90;;;;;;;;;;6186784;23;20012;-94
2023/02/24 16:17:49;;;;;;;47.22;30.88;;;;;;;;;;6187967;23;20023;-94
2023/02/24 16:20:26;;;;;;;52.35;33.50;;;;;;;;;;6187059;23;20017;-96
2023/02/24 16:22:52;;;;;;;47.40;31.50;;;;;;;;;;6186740;23;20012;-89
2023/02/24 16:25:18;;;;;;;54.92;33.75;;;;;;;;;;6156446;23;20096;-93
2023/02/24 16:27:48;;;;;;;54.17;33.97;;;;;;;;;;6184579;23;20009;-96
2023/02/24 16:30:16;;;;;;;62.25;36.83;;;;;;;;;;6186184;23;20100;-89
2023/02/24 16:32:42;;;;;;;68.75;38.80;;;;;;;;;;6161290;23;20005;-93
2023/02/24 16:35:09;;;;;;;92.65;48.67;;;;;;;;;;6186535;23;20009;-94
2023/02/24 16:37:36;;;;;;;179.07;90.53;;;;;;;;;;6191840;23;20519;-93
2023/02/24 16:40:09;;;;;;;145.75;82.88;;;;;;;;;;6188356;23;20075;-92
2023/02/24 16:42:35;;;;;;;109.00;58.60;;;;;;;;;;6187022;23;20005;-92
2023/02/24 16:45:38;;;;;;;;;;;;;;;;;;;;;
2023/02/24 16:48:19;;;;;;;92.97;51.78;;;;;;;;;;6138603;23;20063;-95
2023/02/24 16:50:46;;;;;;;85.80;52.28;;;;;;;;;;6192585;23;20449;-96
2023/02/24 16:53:42;;;;;;;80.22;49.08;;;;;;;;;;6172355;23;20447;-96
2023/02/24 16:56:13;;;;;;;75.15;46.25;;;;;;;;;;6202002;23;20005;-95
2023/02/24 16:58:40;;;;;;;61.72;37.28;;;;;;;;;;6182017;23;20021;-94
2023/02/24 17:01:08;;;;;;;57.33;37.80;;;;;;;;;;6189673;23;20017;-96
2023/02/24 17:04:00;;;;;;;57.85;36.53;;;;;;;;;;6195032;23;20016;-96
2023/02/24 17:09:06;;;;;;;55.35;34.47;;;;;;;;;;6194636;22;20284;-96
2023/02/24 17:11:33;;;;;;;69.35;38.33;;;;;;;;;;6201882;23;20015;-95
2023/02/24 17:14:00;;;;;;;59.80;39.30;;;;;;;;;;6200205;23;20399;-96
2023/02/24 17:16:31;;;;;;;60.65;37.63;;;;;;;;;;6229661;23;20052;-96
2023/02/24 17:18:57;;;;;;;55.35;37.03;;;;;;;;;;6195126;23;20087;-94
2023/02/24 17:21:23;;;;;;;61.28;37.30;;;;;;;;;;6194339;23;20075;-91
2023/02/24 17:23:50;;;;;;;59.50;38.03;;;;;;;;;;6192791;23;20426;-96
2023/02/24 17:28:47;;;;;;;60.17;38.22;;;;;;;;;;6191340;23;20021;-93
2023/02/24 17:31:30;;;;;;;60.47;38.45;;;;;;;;;;6168360;23;20009;-96
2023/02/24 17:34:22;;;;;;;77.80;46.97;;;;;;;;;;6176115;23;20029;-96
2023/02/24 17:37:25;;;;;;;;;;;;;;;;;;;;;
2023/02/24 17:40:05;;;;;;;84.32;49.05;;;;;;;;;;6079229;23;20015;-96
2023/02/24 17:58:22;;;;;;;78.63;46.58;;;;;;;;;;6207784;23;20024;-96
2023/02/24 18:01:15;;;;;;;74.90;46.53;;;;;;;;;;6195928;23;20019;-96
2023/02/24 18:03:43;;;;;;;161.02;92.72;;;;;;;;;;6178983;23;20409;-95
2023/02/24 18:06:10;;;;;;;73.93;46.28;;;;;;;;;;6191478;23;20000;-95
2023/02/24 18:08:45;;;;;;;103.28;60.80;;;;;;;;;;6202737;23;20008;-96
2023/02/24 18:13:51;;;;;;;145.70;86.07;;;;;;;;;;6206862;22;20020;-92
2023/02/24 18:16:19;;;;;;;135.65;79.82;;;;;;;;;;6193043;23;20040;-95
2023/02/24 18:21:33;;;;;;;117.97;69.85;;;;;;;;;;6225556;23;20025;-96
2023/02/24 18:34:24;;;;;;;81.57;49.97;;;;;;;;;;6212119;22;20020;-93
2023/02/24 18:36:50;;;;;;;78.32;49.20;;;;;;;;;;6201646;23;20442;-96
2023/02/24 18:39:16;;;;;;;85.85;53.30;;;;;;;;;;6203369;23;20005;-96
2023/02/24 18:47:35;;;;;;;90.93;53.42;;;;;;;;;;6233999;22;20024;-95
2023/02/24 18:50:23;;;;;;;74.57;46.70;;;;;;;;;;6059809;23;20011;-96
2023/02/24 18:58:30;;;;;;;95.85;59.05;;;;;;;;;;6208327;22;20095;-96
2023/02/24 19:14:23;;;;;;;92.38;57.67;;;;;;;;;;6178409;23;20111;-96
2023/02/24 19:16:49;;;;;;;;;;;;;;;;;;6202463;23;20009;-96
2023/02/24 19:19:15;;;;;;;91.72;52.03;;;;;;;;;;6210452;23;19911;-96
2023/02/24 19:21:44;;;;;;;83.70;51.55;;;;;;;;;;6193925;23;20088;-95
2023/02/24 19:24:52;;;;;;;71.32;48.17;;;;;;;;;;6198920;23;20001;-95
2023/02/24 19:28:12;;;;;;;;;;;;;;;;;;;;;
2023/02/24 19:31:14;;;;;;;111.05;60.78;;;;;;;;;;6165722;23;20024;-96
2023/02/24 19:33:58;;;;;;;119.55;68.30;;;;;;;;;;6199283;23;20073;-96
2023/02/24 19:39:25;;;;;;;184.18;94.80;;;;;;;;;;6221096;23;20406;-96
2023/02/24 19:41:52;;;;;;;172.77;90.82;;;;;;;;;;6190527;23;20000;-95
2023/02/24 19:44:22;;;;;;;177.77;93.72;;;;;;;;;;6194417;23;20096;-96
2023/02/24 19:47:20;;;;;;;186.80;99.75;;;;;;;;;;6201971;23;20083;-96
2023/02/24 19:50:03;;;;;;;167.82;87.35;;;;;;;;;;6209887;22;20007;-94
2023/02/24 19:52:32;;;;;;;115.88;64.18;;;;;;;;;;6173744;23;20080;-96
2023/02/24 19:55:27;;;;;;;133.95;74.57;;;;;;;;;;6168599;23;20015;-95
2023/02/24 20:03:53;;;;;;;108.05;59.78;;;;;;;;;;6223013;22;20025;-94
2023/02/24 20:06:20;;;;;;;114.00;65.97;;;;;;;;;;6202124;23;20009;-93
2023/02/24 20:08:51;;;;;;;123.45;72.30;;;;;;;;;;6214345;23;20009;-94
2023/02/24 20:11:28;;;;;;;83.95;49.65;;;;;;;;;;6203233;23;20021;-93
2023/02/24 20:14:03;;;;;;;57.47;35.60;;;;;;;;;;6194698;22;20838;-94
2023/02/24 20:16:54;;;;;;;54.80;35.17;;;;;;;;;;6198019;23;20009;-96
2023/02/24 20:19:20;;;;;;;57.95;34.08;;;;;;;;;;6193257;23;20379;-94
2023/02/24 20:21:46;;;;;;;37.30;23.33;;;;;;;;;;6199711;23;20009;-94
2023/02/24 20:24:31;;;;;;;40.85;22.80;;;;;;;;;;6199431;23;20031;-96
2023/02/24 20:27:10;;;;;;;28.65;16.13;;;;;;;;;;6205035;23;20076;-96
2023/02/24 20:32:32;;;;;;;35.45;17.48;;;;;;;;;;6221881;22;20230;-90
2023/02/24 20:44:04;;;;;;;15.55;7.82;;;;;;;;;;6193616;22;20051;-95
2023/02/24 20:49:10;;;;;;;18.58;9.93;;;;;;;;;;6205571;22;20370;-91
2023/02/24 20:51:36;;;;;;;24.33;11.93;;;;;;;;;;6193131;23;20005;-93
2023/02/24 20:56:35;;;;;;;19.52;11.23;;;;;;;;;;6189209;23;20060;-94
2023/02/24 20:59:06;;;;;;;22.65;9.70;;;;;;;;;;6167299;23;20013;-92
2023/02/24 21:04:03;;;;;;;18.33;8.75;;;;;;;;;;6226421;22;20350;-93
2023/02/24 21:06:32;;;;;;;17.80;10.00;;;;;;;;;;6233699;23;20039;-96
2023/02/24 21:08:58;;;;;;;24.10;11.52;;;;;;;;;;6194686;22;20008;-94
2023/02/24 21:16:52;;;;;;;18.20;9.95;;;;;;;;;;6199588;22;20233;-94
2023/02/24 21:19:18;;;;;;;14.40;7.65;;;;;;;;;;6232331;23;20131;-92
2023/02/24 21:29:45;;;;;;;20.23;8.20;;;;;;;;;;6197533;22;20036;-96
2023/02/24 21:32:23;;;;;;;15.60;7.18;;;;;;;;;;6171004;23;20009;-96
2023/02/24 21:40:10;;;;;;;16.17;8.77;;;;;;;;;;6228395;22;20065;-94
2023/02/24 21:54:03;;;;;;;19.92;10.27;;;;;;;;;;6228721;23;20059;-96
2023/02/24 21:56:39;;;;;;;15.68;8.68;;;;;;;;;;6204093;23;20067;-96
2023/02/24 21:59:24;;;;;;;15.75;8.35;;;;;;;;;;6201680;23;20024;-96
2023/02/24 22:01:53;;;;;;;14.50;7.78;;;;;;;;;;6196812;23;20031;-92
2023/02/24 22:04:43;;;;;;;15.13;7.82;;;;;;;;;;6186825;23;20024;-96
2023/02/24 22:07:09;;;;;;;14.57;7.47;;;;;;;;;;6195853;23;20009;-96
2023/02/24 22:09:44;;;;;;;14.55;7.13;;;;;;;;;;6211454;23;19993;-96
2023/02/24 22:12:11;;;;;;;14.68;8.23;;;;;;;;;;6215983;23;20028;-93
2023/02/24 22:14:57;;;;;;;14.45;7.78;;;;;;;;;;6215579;23;20011;-95
2023/02/24 22:17:30;;;;;;;16.42;8.48;;;;;;;;;;6224995;23;20008;-96
2023/02/24 22:20:11;;;;;;;15.50;8.20;;;;;;;;;;6220871;23;20012;-96
2023/02/24 22:22:38;;;;;;;19.20;8.30;;;;;;;;;;6191579;23;20012;-92
2023/02/24 22:25:06;;;;;;;12.75;7.90;;;;;;;;;;6191232;23;20075;-93
2023/02/24 22:27:34;;;;;;;17.55;8.60;;;;;;;;;;6189734;23;20043;-96
2023/02/24 22:30:00;;;;;;;17.02;8.60;;;;;;;;;;6193067;23;20024;-94
2023/02/24 22:32:27;;;;;;;16.38;8.15;;;;;;;;;;6193793;23;20350;-95
2023/02/24 22:34:57;;;;;;;16.58;9.50;;;;;;;;;;6221779;23;20004;-94
2023/02/24 22:37:23;;;;;;;16.50;9.32;;;;;;;;;;6196423;23;20024;-94
2023/02/24 22:39:49;;;;;;;16.52;9.32;;;;;;;;;;6193873;23;20012;-96
2023/02/24 22:42:21;;;;;;;16.55;9.23;;;;;;;;;;6218520;23;20005;-96
2023/02/24 22:45:13;;;;;;;21.65;10.20;;;;;;;;;;6218674;23;20474;-96
2023/02/24 22:47:59;;;;;;;16.40;10.43;;;;;;;;;;6222431;23;20059;-95
2023/02/24 22:51:03;;;;;;;19.60;11.02;;;;;;;;;;6197032;23;20084;-96
2023/02/24 22:53:37;;;;;;;16.40;9.93;;;;;;;;;;6223215;23;20076;-96
2023/02/24 22:56:27;;;;;;;16.60;8.93;;;;;;;;;;6203126;23;20056;-96
2023/02/24 22:59:19;;;;;;;22.05;11.02;;;;;;;;;;6197555;23;20000;-96
2023/02/24 23:02:32;;;;;;;24.15;12.27;;;;;;;;;;6219355;23;20017;-96
2023/02/24 23:05:24;;;;;;;25.13;15.50;;;;;;;;;;6223135;23;20017;-96
2023/02/24 23:08:13;;;;;;;29.00;16.02;;;;;;;;;;6226797;23;20009;-96
2023/02/24 23:11:06;;;;;;;30.83;17.65;;;;;;;;;;6200992;23;20016;-96
2023/02/24 23:14:31;;;;;;;28.60;18.05;;;;;;;;;;6201305;23;20016;-94
2023/02/24 23:20:31;;;;;;;41.90;21.02;;;;;;;;;;6230129;23;20080;-93
2023/02/24 23:25:55;;;;;;;36.22;21.80;;;;;;;;;;6169300;22;20024;-96
2023/02/24 23:28:27;;;;;;;44.53;24.88;;;;;;;;;;6203169;23;20051;-96
2023/02/24 23:31:05;;;;;;;37.72;21.65;;;;;;;;;;6202950;23;20011;-96
2023/02/24 23:42:23;;;;;;;;;;;;;;;;;;;;;
2023/02/24 23:48:16;;;;;;;31.25;15.85;;;;;;;;;;6116882;23;20061;-96
2023/02/24 23:57:25;;;;;;;23.63;11.82;;;;;;;;;;6040105;23;20516;-96
2023/02/24 23:59:58;;;;;;;25.27;11.23;;;;;;;;;;6131592;23;20010;-96
